createdAt,value
2022-11-10T00:04:31.232Z,11.52
2022-11-10T00:09:31.108Z,11.58
2022-11-10T00:14:31.040Z,11.55
2022-11-10T00:19:30.949Z,11.58
2022-11-10T00:24:30.867Z,11.51
2022-11-10T00:29:30.912Z,11.42
2022-11-10T00:34:30.774Z,11.46
2022-11-10T00:39:32.891Z,11.43
2022-11-10T00:44:30.781Z,11.35
2022-11-10T00:49:30.702Z,11.42
2022-11-10T00:54:30.744Z,11.36
2022-11-10T00:59:30.565Z,11.32
2022-11-10T01:04:30.640Z,11.27
2022-11-10T01:09:30.409Z,11.25
2022-11-10T01:14:30.345Z,11.19
2022-11-10T01:19:30.289Z,11.18
2022-11-10T01:24:30.236Z,11.17
2022-11-10T01:30:41.566Z,11.11
2022-11-10T01:35:41.931Z,10.97
2022-11-10T01:40:42.686Z,10.88
2022-11-10T01:45:41.657Z,10.99
2022-11-10T01:50:42.568Z,10.97
2022-11-10T01:55:41.347Z,10.96
2022-11-10T02:00:41.331Z,10.85
2022-11-10T02:05:41.436Z,10.94
2022-11-10T02:10:41.184Z,10.84
2022-11-10T02:15:43.594Z,10.79
2022-11-10T02:20:41.055Z,10.85
2022-11-10T02:25:42.120Z,10.88
2022-11-10T02:30:41.288Z,10.92
2022-11-10T02:35:42.007Z,10.97
2022-11-10T02:40:41.029Z,11.02
2022-11-10T02:45:40.905Z,10.99
2022-11-10T02:50:40.730Z,11.06
2022-11-10T02:55:40.741Z,11.00
2022-11-10T03:00:41.879Z,11.02
2022-11-10T03:05:40.720Z,11.03
2022-11-10T03:10:46.095Z,10.91
2022-11-10T03:15:41.986Z,10.86
2022-11-10T03:20:40.421Z,10.88
2022-11-10T03:25:40.656Z,10.78
2022-11-10T03:30:40.313Z,10.84
2022-11-10T03:35:40.216Z,10.92
2022-11-10T03:41:12.097Z,10.84
2022-11-10T03:45:41.139Z,10.89
2022-11-10T03:50:40.085Z,10.89
2022-11-10T03:56:12.927Z,10.79
2022-11-10T04:00:40.181Z,10.84
2022-11-10T04:05:40.018Z,10.71
2022-11-10T04:10:39.953Z,10.67
2022-11-10T04:15:40.230Z,10.71
2022-11-10T04:20:40.053Z,10.63
2022-11-10T04:25:39.750Z,10.52
2022-11-10T04:30:39.675Z,10.51
2022-11-10T04:35:42.189Z,10.32
2022-11-10T04:40:45.400Z,10.40
2022-11-10T04:45:39.919Z,10.32
2022-11-10T04:50:39.543Z,10.29
2022-11-10T04:55:39.515Z,10.32
2022-11-10T05:00:39.387Z,10.40
2022-11-10T05:05:39.605Z,10.33
2022-11-10T05:10:39.574Z,10.18
2022-11-10T05:15:39.736Z,10.30
2022-11-10T05:20:39.113Z,10.29
2022-11-10T05:25:39.388Z,10.33
2022-11-10T05:30:39.154Z,10.22
2022-11-10T05:35:39.014Z,10.14
2022-11-10T05:40:39.973Z,10.25
2022-11-10T05:45:38.919Z,10.17
2022-11-10T05:50:38.882Z,10.34
2022-11-10T05:55:38.723Z,10.36
2022-11-10T06:00:38.725Z,10.45
2022-11-10T06:05:38.612Z,10.45
2022-11-10T06:10:38.615Z,10.44
2022-11-10T06:15:38.573Z,10.30
2022-11-10T06:20:39.479Z,10.30
2022-11-10T06:25:38.469Z,10.33
2022-11-10T06:30:39.424Z,10.20
2022-11-10T06:35:39.392Z,10.17
2022-11-10T06:40:38.408Z,10.20
2022-11-10T06:45:38.302Z,10.17
2022-11-10T06:50:38.263Z,10.23
2022-11-10T06:55:38.086Z,10.34
2022-11-10T07:00:38.247Z,10.40
2022-11-10T07:05:38.072Z,10.40
2022-11-10T07:10:37.937Z,10.36
2022-11-10T07:15:37.928Z,10.30
2022-11-10T07:20:37.934Z,10.45
2022-11-10T07:25:37.729Z,10.63
2022-11-10T07:30:37.696Z,10.74
2022-11-10T07:35:37.836Z,10.70
2022-11-10T07:40:37.587Z,10.81
2022-11-10T07:45:37.810Z,10.89
2022-11-10T07:50:37.614Z,10.92
2022-11-10T07:55:37.561Z,10.91
2022-11-10T08:00:37.445Z,10.82
2022-11-10T08:05:38.389Z,10.86
2022-11-10T08:10:37.283Z,10.96
2022-11-10T08:15:37.251Z,10.96
2022-11-10T08:20:37.172Z,10.92
2022-11-10T08:25:37.205Z,11.11
2022-11-10T08:30:37.098Z,11.21
2022-11-10T08:35:39.080Z,11.29
2022-11-10T08:40:36.908Z,11.39
2022-11-10T08:45:36.869Z,11.51
2022-11-10T08:50:36.865Z,11.58
2022-11-10T08:55:36.871Z,11.65
2022-11-10T09:00:37.764Z,11.78
2022-11-10T09:05:36.821Z,11.94
2022-11-10T09:10:36.839Z,12.14
2022-11-10T09:15:37.628Z,12.37
2022-11-10T09:20:37.642Z,12.45
2022-11-10T09:25:36.443Z,12.79
2022-11-10T09:30:36.457Z,12.89
2022-11-10T09:35:36.335Z,13.07
2022-11-10T09:40:36.280Z,13.41
2022-11-10T09:45:39.115Z,13.62
2022-11-10T09:50:36.213Z,13.49
2022-11-10T09:55:36.569Z,13.81
2022-11-10T10:00:36.037Z,13.97
2022-11-10T10:05:35.985Z,14.00
2022-11-10T10:10:35.999Z,14.06
2022-11-10T10:15:38.017Z,14.28
2022-11-10T10:20:35.870Z,14.52
2022-11-10T10:25:35.833Z,14.64
2022-11-10T10:30:35.764Z,14.75
2022-11-10T10:35:41.458Z,14.65
2022-11-10T10:40:36.671Z,14.94
2022-11-10T10:45:35.612Z,14.91
2022-11-10T10:50:36.600Z,15.13
2022-11-10T10:55:35.459Z,14.98
2022-11-10T11:00:35.559Z,15.07
2022-11-10T11:05:35.515Z,15.06
2022-11-10T11:10:35.296Z,15.09
2022-11-10T11:15:35.237Z,15.17
2022-11-10T11:20:35.223Z,15.19
2022-11-10T11:25:35.139Z,15.34
2022-11-10T11:30:35.200Z,15.50
2022-11-10T11:35:38.602Z,15.47
2022-11-10T11:40:35.038Z,15.65
2022-11-10T11:45:34.970Z,15.43
2022-11-10T11:50:35.056Z,15.47
2022-11-10T11:55:34.853Z,15.46
2022-11-10T12:00:34.797Z,15.49
2022-11-10T12:05:34.807Z,15.56
2022-11-10T12:10:37.237Z,15.49
2022-11-10T12:15:34.628Z,15.68
2022-11-10T12:20:34.807Z,15.60
2022-11-10T12:25:34.483Z,15.38
2022-11-10T12:30:34.610Z,15.27
2022-11-10T12:35:34.498Z,15.25
2022-11-10T12:40:36.972Z,15.31
2022-11-10T12:45:35.332Z,15.20
2022-11-10T12:50:34.261Z,15.14
2022-11-10T12:55:34.266Z,15.29
2022-11-10T13:00:34.203Z,15.21
2022-11-10T13:05:34.132Z,15.34
2022-11-10T13:10:34.020Z,15.28
2022-11-10T13:15:33.963Z,15.21
2022-11-10T13:20:34.180Z,15.16
2022-11-10T13:25:33.858Z,15.09
2022-11-10T13:31:44.096Z,15.20
2022-11-10T13:36:44.040Z,15.23
2022-11-10T13:41:44.009Z,15.20
2022-11-10T13:46:43.995Z,15.23
2022-11-10T13:51:44.025Z,15.21
2022-11-10T13:56:43.968Z,15.29
2022-11-10T14:01:43.863Z,15.34
2022-11-10T14:06:43.896Z,15.32
2022-11-10T14:11:49.525Z,15.23
2022-11-10T14:16:44.606Z,14.91
2022-11-10T14:21:43.561Z,15.06
2022-11-10T14:26:43.554Z,15.01
2022-11-10T14:31:43.512Z,14.86
2022-11-10T14:36:43.533Z,14.89
2022-11-10T14:41:43.539Z,14.81
2022-11-10T14:46:43.366Z,14.80
2022-11-10T14:51:43.311Z,14.86
2022-11-10T14:56:43.187Z,14.58
2022-11-10T15:01:43.214Z,14.47
2022-11-10T15:06:46.866Z,14.36
2022-11-10T15:11:43.226Z,14.36
2022-11-10T15:16:43.146Z,14.52
2022-11-10T15:21:43.030Z,14.42
2022-11-10T15:26:42.913Z,14.22
2022-11-10T15:31:42.994Z,14.06
2022-11-10T15:36:42.825Z,14.00
2022-11-10T15:41:42.878Z,13.91
2022-11-10T15:46:42.658Z,13.70
2022-11-10T15:51:42.604Z,13.52
2022-11-10T15:56:42.588Z,13.52
2022-11-10T16:01:42.539Z,13.48
2022-11-10T16:06:42.597Z,13.28
2022-11-10T16:11:42.419Z,13.39
2022-11-10T16:16:42.333Z,13.19
2022-11-10T16:21:42.568Z,13.12
2022-11-10T16:26:42.336Z,12.95
2022-11-10T16:31:42.284Z,12.79
2022-11-10T16:36:42.122Z,12.77
2022-11-10T16:41:44.063Z,12.70
2022-11-10T16:46:42.111Z,12.52
2022-11-10T16:51:48.284Z,12.35
2022-11-10T16:56:42.995Z,12.62
2022-11-10T17:01:41.943Z,12.53
2022-11-10T17:06:41.806Z,12.50
2022-11-10T17:11:41.698Z,12.41
2022-11-10T17:16:41.714Z,12.24
2022-11-10T17:21:42.749Z,12.23
2022-11-10T17:26:41.698Z,12.20
2022-11-10T17:31:41.671Z,12.39
2022-11-10T17:36:41.605Z,12.24
2022-11-10T17:41:41.398Z,12.27
2022-11-10T17:46:41.330Z,12.19
2022-11-10T17:51:41.335Z,12.12
2022-11-10T17:56:41.379Z,12.02
2022-11-10T18:01:42.266Z,11.99
2022-11-10T18:06:42.453Z,12.07
2022-11-10T18:11:41.364Z,11.86
2022-11-10T18:16:42.240Z,11.75
2022-11-10T18:21:43.446Z,11.76
2022-11-10T18:26:40.941Z,11.95
2022-11-10T18:31:40.923Z,12.01
2022-11-10T18:36:41.012Z,12.04
2022-11-10T18:41:40.919Z,12.01
2022-11-10T18:46:42.118Z,12.05
2022-11-10T18:51:40.701Z,11.91
2022-11-10T18:56:40.597Z,11.60
2022-11-10T19:01:40.867Z,11.69
2022-11-10T19:06:40.629Z,11.62
2022-11-10T19:11:40.609Z,11.52
2022-11-10T19:16:40.587Z,11.43
2022-11-10T19:21:40.332Z,11.37
2022-11-10T19:26:40.363Z,11.32
2022-11-10T19:31:40.412Z,11.24
2022-11-10T19:36:40.592Z,11.09
2022-11-10T19:41:40.116Z,11.25
2022-11-10T19:46:40.078Z,11.25
2022-11-10T19:51:40.057Z,11.24
2022-11-10T19:56:40.153Z,11.22
2022-11-10T20:01:43.176Z,11.28
2022-11-10T20:06:39.925Z,11.19
2022-11-10T20:11:39.890Z,11.10
2022-11-10T20:16:39.718Z,11.04
2022-11-10T20:21:39.688Z,10.97
2022-11-10T20:26:39.669Z,11.03
2022-11-10T20:31:39.691Z,10.89
2022-11-10T20:36:39.564Z,10.84
2022-11-10T20:41:39.470Z,10.74
2022-11-10T20:46:54.429Z,10.76
2022-11-10T20:51:40.382Z,10.67
2022-11-10T20:56:39.410Z,10.59
2022-11-10T21:01:39.275Z,10.61
2022-11-10T21:06:39.209Z,10.55
2022-11-10T21:11:39.124Z,10.45
2022-11-10T21:16:39.128Z,10.48
2022-11-10T21:21:39.074Z,10.44
2022-11-10T21:26:38.988Z,10.38
2022-11-10T21:31:38.916Z,10.47
2022-11-10T21:36:38.839Z,10.47
2022-11-10T21:41:38.808Z,10.41
2022-11-10T21:46:38.728Z,10.30
2022-11-10T21:51:38.745Z,10.23
2022-11-10T21:56:38.699Z,10.12
2022-11-10T22:01:38.671Z,10.12
2022-11-10T22:06:38.622Z,10.07
2022-11-10T22:11:38.493Z,10.15
2022-11-10T22:16:38.424Z,10.08
2022-11-10T22:21:38.342Z,10.09
2022-11-10T22:26:38.310Z,9.99
2022-11-10T22:31:38.260Z,10.08
2022-11-10T22:36:38.246Z,10.02
2022-11-10T22:41:38.189Z,9.94
2022-11-10T22:46:38.107Z,9.94
2022-11-10T22:51:38.043Z,9.91
2022-11-10T22:56:37.970Z,9.87
2022-11-10T23:01:38.006Z,9.76
2022-11-10T23:06:37.909Z,9.69
2022-11-10T23:11:37.925Z,9.76
2022-11-10T23:16:37.839Z,9.78
2022-11-10T23:21:37.787Z,9.89
2022-11-10T23:26:37.665Z,9.84
2022-11-10T23:31:37.574Z,9.74
2022-11-10T23:36:37.523Z,9.75
2022-11-10T23:41:37.542Z,9.60
2022-11-10T23:46:37.524Z,9.56
2022-11-10T23:51:37.403Z,9.60
2022-11-10T23:56:37.431Z,9.60
